createdAt,value
2022-12-01T00:01:08.163Z,18.67
2022-12-01T00:03:35.623Z,20.37
2022-12-01T00:06:04.697Z,24.10
2022-12-01T00:08:31.923Z,22.80
2022-12-01T00:11:05.657Z,23.33
2022-12-01T00:13:32.485Z,19.40
2022-12-01T00:16:09.321Z,21.00
2022-12-01T00:18:35.905Z,20.57
2022-12-01T00:21:02.445Z,24.73
2022-12-01T00:23:28.926Z,22.93
2022-12-01T00:25:55.567Z,20.73
2022-12-01T00:28:22.003Z,18.93
2022-12-01T00:30:48.465Z,20.83
2022-12-01T00:33:15.158Z,23.07
2022-12-01T00:35:41.590Z,21.47
2022-12-01T00:38:08.059Z,21.43
2022-12-01T00:40:35.420Z,21.93
2022-12-01T00:43:02.404Z,20.47
2022-12-01T00:45:28.795Z,23.17
2022-12-01T00:47:55.273Z,23.20
2022-12-01T00:50:21.813Z,20.13
2022-12-01T00:52:48.543Z,21.60
2022-12-01T00:55:15.102Z,23.20
2022-12-01T00:57:41.527Z,22.77
2022-12-01T01:00:08.672Z,20.60
2022-12-01T01:02:35.771Z,21.43
2022-12-01T01:05:02.226Z,20.43
2022-12-01T01:07:30.134Z,22.87
2022-12-01T01:09:56.983Z,19.53
2022-12-01T01:12:23.492Z,19.00
2022-12-01T01:14:50.051Z,21.27
2022-12-01T01:17:16.666Z,21.93
2022-12-01T01:19:43.367Z,23.13
2022-12-01T01:22:09.786Z,22.67
2022-12-01T01:24:36.572Z,25.63
2022-12-01T01:27:03.153Z,22.40
2022-12-01T01:29:29.701Z,22.57
2022-12-01T01:31:56.241Z,23.40
2022-12-01T01:34:22.702Z,26.20
2022-12-01T01:36:49.311Z,25.53
2022-12-01T01:39:16.287Z,23.30
2022-12-01T01:41:42.910Z,25.03
2022-12-01T01:44:46.796Z,23.90
2022-12-01T01:47:13.924Z,25.83
2022-12-01T01:49:41.090Z,24.30
2022-12-01T01:52:07.799Z,26.17
2022-12-01T01:54:38.238Z,26.70
2022-12-01T01:57:05.930Z,24.93
2022-12-01T01:59:37.876Z,25.53
2022-12-01T02:02:09.287Z,25.57
2022-12-01T02:04:41.188Z,25.97
2022-12-01T02:07:09.186Z,23.53
2022-12-01T02:09:36.410Z,27.03
2022-12-01T02:12:40.015Z,25.17
2022-12-01T02:15:15.443Z,26.67
2022-12-01T02:18:06.981Z,25.43
2022-12-01T02:20:59.150Z,24.10
2022-12-01T02:23:31.730Z,25.40
2022-12-01T02:26:39.356Z,23.10
2022-12-01T02:29:37.690Z,26.30
2022-12-01T02:32:15.908Z,27.23
2022-12-01T02:34:56.396Z,28.17
2022-12-01T02:37:34.221Z,25.13
2022-12-01T02:40:12.082Z,27.10
2022-12-01T02:42:56.630Z,27.40
2022-12-01T02:45:43.328Z,29.30
2022-12-01T02:48:14.607Z,27.27
2022-12-01T02:50:42.967Z,27.27
2022-12-01T02:53:11.598Z,27.27
2022-12-01T02:55:47.083Z,27.90
2022-12-01T02:58:14.874Z,28.77
2022-12-01T03:00:55.044Z,30.03
2022-12-01T03:03:45.089Z,27.97
2022-12-01T03:06:24.643Z,30.07
2022-12-01T03:09:09.419Z,32.20
2022-12-01T03:11:50.468Z,32.10
2022-12-01T03:14:35.145Z,30.10
2022-12-01T03:17:05.164Z,35.70
2022-12-01T03:19:38.999Z,30.50
2022-12-01T03:22:11.187Z,29.37
2022-12-01T03:24:38.959Z,31.27
2022-12-01T03:27:06.479Z,32.37
2022-12-01T03:29:43.259Z,31.30
2022-12-01T03:32:24.136Z,30.23
2022-12-01T03:34:58.550Z,30.50
2022-12-01T03:37:35.338Z,30.33
2022-12-01T03:40:03.255Z,30.07
2022-12-01T03:42:36.938Z,34.50
2022-12-01T03:45:10.277Z,29.53
2022-12-01T03:47:39.716Z,32.50
2022-12-01T03:50:08.124Z,30.90
2022-12-01T03:53:22.270Z,28.27
2022-12-01T03:55:52.699Z,30.43
2022-12-01T03:58:26.318Z,32.70
2022-12-01T04:00:55.671Z,30.53
2022-12-01T04:03:24.594Z,31.73
2022-12-01T04:05:51.237Z,31.03
2022-12-01T04:08:17.963Z,31.33
2022-12-01T04:10:44.413Z,27.20
2022-12-01T04:13:16.937Z,32.60
2022-12-01T04:15:43.570Z,28.87
2022-12-01T04:18:10.072Z,26.97
2022-12-01T04:20:36.690Z,34.13
2022-12-01T04:23:03.094Z,30.67
2022-12-01T04:25:29.513Z,30.00
2022-12-01T04:27:56.146Z,31.47
2022-12-01T04:30:22.705Z,33.53
2022-12-01T04:32:49.163Z,33.63
2022-12-01T04:35:15.826Z,28.10
2022-12-01T04:37:42.245Z,30.27
2022-12-01T04:40:09.140Z,30.00
2022-12-01T04:42:35.759Z,29.33
2022-12-01T04:45:02.389Z,32.40
2022-12-01T04:47:28.865Z,31.80
2022-12-01T04:49:55.527Z,31.33
2022-12-01T04:52:22.038Z,34.87
2022-12-01T04:54:48.473Z,34.37
2022-12-01T04:57:15.308Z,29.13
2022-12-01T04:59:41.737Z,34.57
2022-12-01T05:02:08.241Z,29.50
2022-12-01T05:04:38.694Z,35.73
2022-12-01T05:07:05.390Z,32.63
2022-12-01T05:09:31.876Z,32.30
2022-12-01T05:11:58.394Z,31.47
2022-12-01T05:14:24.807Z,35.23
2022-12-01T05:16:51.359Z,31.77
2022-12-01T05:19:36.563Z,31.67
2022-12-01T05:22:03.025Z,36.20
2022-12-01T05:24:29.567Z,31.87
2022-12-01T05:26:56.057Z,40.47
2022-12-01T05:29:22.649Z,36.63
2022-12-01T05:31:49.158Z,35.53
2022-12-01T05:34:16.135Z,37.63
2022-12-01T05:36:42.547Z,35.00
2022-12-01T05:39:08.965Z,39.13
2022-12-01T05:41:35.519Z,32.70
2022-12-01T05:44:02.086Z,36.73
2022-12-01T05:46:28.486Z,36.97
2022-12-01T05:48:55.111Z,38.07
2022-12-01T05:51:21.645Z,35.33
2022-12-01T05:53:48.123Z,36.50
2022-12-01T05:56:14.959Z,35.00
2022-12-01T05:58:41.565Z,36.57
2022-12-01T06:01:07.995Z,36.00
2022-12-01T06:03:35.482Z,35.00
2022-12-01T06:06:02.175Z,31.47
2022-12-01T06:08:28.749Z,30.80
2022-12-01T06:10:55.249Z,30.97
2022-12-01T06:13:21.849Z,32.20
2022-12-01T06:16:02.631Z,30.57
2022-12-01T06:18:35.302Z,33.60
2022-12-01T06:21:02.760Z,31.90
2022-12-01T06:23:30.741Z,31.53
2022-12-01T06:25:57.861Z,31.10
2022-12-01T06:28:24.333Z,29.10
2022-12-01T06:30:50.870Z,29.10
2022-12-01T06:33:17.963Z,31.10
2022-12-01T06:35:44.659Z,29.00
2022-12-01T06:38:11.155Z,35.10
2022-12-01T06:40:37.661Z,29.50
2022-12-01T06:43:04.135Z,29.47
2022-12-01T06:45:30.990Z,29.60
2022-12-01T06:47:57.931Z,32.03
2022-12-01T06:50:25.184Z,31.90
2022-12-01T06:52:52.784Z,29.73
2022-12-01T06:55:19.574Z,32.90
2022-12-01T06:57:46.395Z,29.00
2022-12-01T07:00:14.117Z,27.10
2022-12-01T07:02:40.753Z,31.13
2022-12-01T07:05:07.687Z,28.63
2022-12-01T07:07:38.605Z,29.27
2022-12-01T07:10:06.306Z,29.73
2022-12-01T07:12:32.842Z,28.60
2022-12-01T07:14:59.408Z,29.53
2022-12-01T07:17:26.066Z,32.83
2022-12-01T07:19:52.612Z,29.63
2022-12-01T07:22:19.674Z,27.83
2022-12-01T07:24:46.584Z,27.90
2022-12-01T07:27:13.123Z,26.93
2022-12-01T07:29:39.795Z,26.93
2022-12-01T07:32:06.587Z,37.30
2022-12-01T07:34:33.474Z,29.07
2022-12-01T07:37:00.086Z,25.93
2022-12-01T07:39:26.874Z,27.07
2022-12-01T07:41:53.415Z,27.13
2022-12-01T07:44:20.011Z,30.83
2022-12-01T07:46:46.612Z,31.67
2022-12-01T07:49:15.555Z,32.13
2022-12-01T07:51:42.250Z,30.90
2022-12-01T07:54:10.859Z,33.20
2022-12-01T07:56:37.630Z,31.23
2022-12-01T07:59:04.176Z,32.33
2022-12-01T08:01:30.983Z,35.07
2022-12-01T08:03:58.937Z,33.03
2022-12-01T08:06:26.691Z,31.77
2022-12-01T08:08:53.435Z,32.87
2022-12-01T08:11:22.712Z,31.90
2022-12-01T08:13:50.111Z,32.00
2022-12-01T08:16:18.726Z,32.00
2022-12-01T08:18:45.153Z,32.07
2022-12-01T08:21:14.890Z,36.47
2022-12-01T08:23:42.212Z,36.80
2022-12-01T08:26:18.521Z,35.83
2022-12-01T08:28:45.870Z,35.17
2022-12-01T08:31:14.225Z,34.47
2022-12-01T08:33:40.971Z,36.10
2022-12-01T08:36:07.977Z,31.10
2022-12-01T08:38:35.765Z,33.13
2022-12-01T08:41:03.933Z,32.23
2022-12-01T08:46:17.291Z,31.77
2022-12-01T08:48:43.896Z,34.90
2022-12-01T08:51:12.720Z,34.07
2022-12-01T08:53:45.482Z,30.73
2022-12-01T08:56:27.674Z,34.87
2022-12-01T08:58:55.175Z,31.00
2022-12-01T09:01:22.206Z,28.47
2022-12-01T09:03:49.108Z,30.97
2022-12-01T09:06:20.181Z,27.67
2022-12-01T09:08:47.331Z,27.60
2022-12-01T09:11:17.613Z,30.20
2022-12-01T09:13:48.626Z,29.57
2022-12-01T09:16:18.567Z,35.57
2022-12-01T09:18:46.459Z,28.83
2022-12-01T09:21:18.132Z,31.90
2022-12-01T09:23:44.717Z,27.90
2022-12-01T09:26:13.830Z,31.73
2022-12-01T09:28:40.816Z,32.87
2022-12-01T09:31:09.177Z,32.13
2022-12-01T09:33:36.427Z,32.37
2022-12-01T09:36:05.262Z,33.47
2022-12-01T09:38:34.061Z,34.67
2022-12-01T09:41:17.800Z,34.30
2022-12-01T09:43:49.250Z,30.20
2022-12-01T09:46:22.289Z,31.07
2022-12-01T09:48:49.908Z,35.10
2022-12-01T09:51:22.533Z,34.57
2022-12-01T09:53:51.494Z,29.57
2022-12-01T09:56:22.414Z,33.47
2022-12-01T09:58:57.533Z,29.07
2022-12-01T10:01:36.070Z,32.43
2022-12-01T10:04:10.056Z,31.87
2022-12-01T10:06:39.939Z,35.13
2022-12-01T10:09:25.878Z,36.43
2022-12-01T10:11:55.461Z,36.53
2022-12-01T10:14:22.309Z,36.93
2022-12-01T10:17:04.122Z,35.37
2022-12-01T10:20:11.163Z,35.87
2022-12-01T10:22:45.978Z,38.10
2022-12-01T10:25:27.750Z,39.53
2022-12-01T10:28:27.361Z,40.67
2022-12-01T10:30:57.440Z,39.90
2022-12-01T10:33:26.219Z,39.07
2022-12-01T10:35:53.108Z,40.57
2022-12-01T10:38:25.577Z,47.17
2022-12-01T10:40:53.728Z,45.00
2022-12-01T10:43:40.917Z,48.23
2022-12-01T10:46:22.775Z,44.07
2022-12-01T10:48:55.384Z,45.63
2022-12-01T10:51:22.829Z,41.90
2022-12-01T10:53:50.136Z,42.63
2022-12-01T10:56:19.143Z,45.67
2022-12-01T10:58:48.062Z,44.63
2022-12-01T11:01:24.325Z,47.47
2022-12-01T11:03:59.480Z,49.73
2022-12-01T11:06:29.448Z,51.90
2022-12-01T11:08:58.312Z,49.67
2022-12-01T11:11:34.121Z,51.87
2022-12-01T11:14:04.761Z,53.50
2022-12-01T11:16:40.994Z,51.27
2022-12-01T11:19:26.892Z,48.53
2022-12-01T11:21:57.207Z,50.13
2022-12-01T11:24:54.654Z,41.80
2022-12-01T11:27:49.572Z,44.53
2022-12-01T11:30:26.277Z,47.60
2022-12-01T11:32:55.781Z,53.83
2022-12-01T11:35:25.068Z,54.83
2022-12-01T11:40:49.641Z,49.27
2022-12-01T11:43:37.073Z,51.63
2022-12-01T11:46:05.886Z,50.30
2022-12-01T11:48:36.444Z,55.33
2022-12-01T11:51:37.345Z,49.33
2022-12-01T11:54:11.858Z,49.27
2022-12-01T11:56:38.455Z,47.33
2022-12-01T11:59:26.616Z,53.93
2022-12-01T12:02:06.180Z,52.47
2022-12-01T12:04:41.468Z,53.10
2022-12-01T12:07:46.904Z,51.83
2022-12-01T12:10:39.063Z,52.97
2022-12-01T12:13:05.894Z,54.83
2022-12-01T12:16:01.355Z,49.83
2022-12-01T12:19:03.448Z,50.57
2022-12-01T12:21:44.666Z,55.67
2022-12-01T12:24:14.851Z,53.13
2022-12-01T12:26:52.521Z,48.30
2022-12-01T12:29:35.964Z,52.40
2022-12-01T12:32:22.116Z,53.70
2022-12-01T12:35:01.145Z,60.60
2022-12-01T12:37:49.920Z,62.53
2022-12-01T12:40:41.080Z,53.00
2022-12-01T12:43:30.365Z,62.27
2022-12-01T12:46:07.567Z,56.50
2022-12-01T12:49:11.639Z,57.90
2022-12-01T12:51:55.780Z,59.53
2022-12-01T12:54:32.630Z,57.90
2022-12-01T12:57:03.687Z,55.37
2022-12-01T12:59:43.497Z,53.07
2022-12-01T13:02:15.122Z,50.83
2022-12-01T13:05:05.654Z,56.20
2022-12-01T13:08:00.228Z,51.23
2022-12-01T13:10:36.989Z,55.43
2022-12-01T13:13:30.482Z,49.17
2022-12-01T13:15:58.878Z,57.63
2022-12-01T13:18:41.332Z,51.87
2022-12-01T13:21:20.495Z,49.20
2022-12-01T13:23:49.308Z,48.27
2022-12-01T13:26:18.381Z,51.20
2022-12-01T13:28:49.297Z,54.23
2022-12-01T13:31:19.759Z,38.57
2022-12-01T13:33:56.246Z,44.53
2022-12-01T13:36:45.789Z,49.93
2022-12-01T13:39:23.195Z,44.03
2022-12-01T13:42:18.182Z,48.00
2022-12-01T13:44:51.205Z,45.13
2022-12-01T13:47:20.841Z,37.20
2022-12-01T13:49:52.272Z,33.77
2022-12-01T13:52:22.109Z,29.63
2022-12-01T13:55:09.584Z,32.17
2022-12-01T13:57:45.456Z,33.57
2022-12-01T14:00:26.216Z,26.53
2022-12-01T14:03:19.423Z,34.40
2022-12-01T14:05:46.059Z,26.20
2022-12-01T14:08:23.667Z,26.43
2022-12-01T14:10:56.826Z,25.37
2022-12-01T14:13:24.332Z,23.97
2022-12-01T14:16:01.929Z,19.73
2022-12-01T14:18:57.663Z,24.50
2022-12-01T14:21:45.625Z,19.43
2022-12-01T14:24:23.523Z,22.37
2022-12-01T14:26:51.086Z,21.13
2022-12-01T14:29:32.479Z,22.27
2022-12-01T14:32:01.705Z,20.93
2022-12-01T14:34:32.197Z,19.40
2022-12-01T14:37:17.020Z,21.13
2022-12-01T14:39:46.533Z,20.83
2022-12-01T14:42:43.968Z,19.47
2022-12-01T14:45:13.754Z,19.63
2022-12-01T14:47:47.799Z,21.13
2022-12-01T14:50:35.300Z,25.10
2022-12-01T14:53:07.302Z,19.60
2022-12-01T14:55:42.185Z,24.90
2022-12-01T14:58:20.155Z,24.30
2022-12-01T15:01:06.087Z,28.33
2022-12-01T15:03:44.300Z,23.27
2022-12-01T15:06:20.254Z,26.70
2022-12-01T15:09:10.614Z,25.33
2022-12-01T15:11:35.942Z,28.47
2022-12-01T15:14:02.725Z,29.17
2022-12-01T15:16:40.632Z,25.80
2022-12-01T15:19:32.777Z,28.93
2022-12-01T15:22:02.668Z,31.87
2022-12-01T15:24:30.968Z,28.00
2022-12-01T15:27:03.472Z,26.53
2022-12-01T15:29:33.353Z,30.43
2022-12-01T15:32:05.716Z,29.53
2022-12-01T15:34:36.325Z,33.67
2022-12-01T15:37:04.773Z,29.57
2022-12-01T15:39:35.507Z,29.77
2022-12-01T15:42:02.445Z,29.80
2022-12-01T15:44:35.259Z,30.53
2022-12-01T15:47:50.115Z,31.17
2022-12-01T15:50:26.165Z,29.37
2022-12-01T15:52:52.736Z,29.30
2022-12-01T15:55:27.025Z,30.53
2022-12-01T15:57:53.898Z,33.70
2022-12-01T16:00:21.950Z,32.60
2022-12-01T16:02:53.749Z,34.40
2022-12-01T16:05:24.295Z,35.00
2022-12-01T16:08:12.505Z,30.00
2022-12-01T16:10:37.462Z,31.13
2022-12-01T16:13:35.400Z,30.23
2022-12-01T16:16:20.366Z,30.30
2022-12-01T16:19:24.013Z,31.00
2022-12-01T16:21:53.735Z,31.43
2022-12-01T16:24:31.914Z,34.50
2022-12-01T16:27:04.138Z,32.87
2022-12-01T16:29:35.359Z,34.47
2022-12-01T16:32:20.714Z,35.07
2022-12-01T16:34:48.462Z,34.20
2022-12-01T16:37:15.435Z,37.50
2022-12-01T16:39:42.134Z,33.93
2022-12-01T16:42:16.528Z,36.47
2022-12-01T16:44:44.828Z,34.20
2022-12-01T16:47:19.350Z,35.23
2022-12-01T16:49:46.237Z,34.83
2022-12-01T16:52:43.165Z,38.40
2022-12-01T16:54:59.912Z,41.70
2022-12-01T16:57:26.309Z,41.00
2022-12-01T16:59:52.872Z,40.10
2022-12-01T17:02:19.457Z,45.47
2022-12-01T17:04:46.007Z,39.57
2022-12-01T17:07:12.475Z,38.70
2022-12-01T17:09:39.237Z,37.27
2022-12-01T17:12:05.858Z,37.43
2022-12-01T17:14:32.304Z,37.57
2022-12-01T17:16:59.074Z,42.33
2022-12-01T17:19:25.522Z,45.03
2022-12-01T17:21:52.922Z,42.07
2022-12-01T17:24:19.566Z,40.20
2022-12-01T17:26:46.090Z,41.73
2022-12-01T17:29:12.562Z,43.07
2022-12-01T17:31:39.058Z,42.20
2022-12-01T17:34:05.554Z,42.17
2022-12-01T17:36:32.091Z,39.20
2022-12-01T17:38:58.917Z,38.97
2022-12-01T17:41:32.039Z,51.97
2022-12-01T17:43:58.574Z,43.37
2022-12-01T17:46:25.089Z,47.53
2022-12-01T17:48:51.607Z,49.87
2022-12-01T17:51:18.132Z,48.53
2022-12-01T17:53:44.723Z,40.90
2022-12-01T17:56:13.426Z,42.73
2022-12-01T17:58:39.874Z,42.03
2022-12-01T18:01:10.789Z,43.33
2022-12-01T18:03:37.244Z,44.03
2022-12-01T18:06:03.806Z,45.33
2022-12-01T18:08:31.313Z,40.33
2022-12-01T18:11:02.708Z,46.17
2022-12-01T18:13:29.355Z,40.27
2022-12-01T18:15:55.890Z,43.17
2022-12-01T18:18:22.528Z,43.10
2022-12-01T18:20:49.168Z,41.47
2022-12-01T18:23:16.002Z,46.10
2022-12-01T18:25:42.661Z,44.77
2022-12-01T18:28:11.147Z,48.83
2022-12-01T18:30:38.724Z,44.37
2022-12-01T18:33:06.563Z,41.97
2022-12-01T18:35:34.021Z,40.20
2022-12-01T18:38:00.615Z,42.47
2022-12-01T18:40:27.308Z,47.97
2022-12-01T18:42:53.832Z,49.03
2022-12-01T18:45:21.515Z,50.43
2022-12-01T18:47:48.294Z,50.70
2022-12-01T18:50:14.867Z,51.63
2022-12-01T18:52:41.399Z,51.40
2022-12-01T18:55:08.158Z,52.27
2022-12-01T18:57:35.663Z,48.17
2022-12-01T19:00:04.826Z,48.20
2022-12-01T19:02:31.436Z,51.83
2022-12-01T19:04:57.903Z,47.90
2022-12-01T19:07:29.584Z,47.63
2022-12-01T19:09:56.451Z,56.20
2022-12-01T19:12:22.939Z,48.83
2022-12-01T19:14:49.828Z,54.10
2022-12-01T19:17:16.757Z,51.90
2022-12-01T19:19:43.241Z,51.03
2022-12-01T19:22:10.131Z,57.10
2022-12-01T19:24:36.593Z,61.97
2022-12-01T19:27:03.199Z,58.33
2022-12-01T19:29:29.615Z,53.30
2022-12-01T19:31:56.317Z,50.83
2022-12-01T19:34:22.887Z,53.83
2022-12-01T19:36:52.170Z,57.03
2022-12-01T19:39:18.996Z,55.73
2022-12-01T19:41:45.522Z,52.73
2022-12-01T19:44:12.137Z,54.03
2022-12-01T19:46:38.642Z,47.63
2022-12-01T19:49:06.637Z,50.93
2022-12-01T19:51:35.474Z,54.87
2022-12-01T19:54:03.768Z,54.00
2022-12-01T19:56:31.215Z,52.33
2022-12-01T19:58:58.727Z,50.97
2022-12-01T20:01:25.800Z,50.23
2022-12-01T20:03:53.284Z,56.80
2022-12-01T20:06:22.835Z,57.07
2022-12-01T20:08:49.706Z,54.93
2022-12-01T20:11:16.847Z,55.50
2022-12-01T20:13:45.173Z,50.47
2022-12-01T20:16:17.288Z,53.17
2022-12-01T20:18:43.978Z,55.20
2022-12-01T20:21:16.125Z,51.90
2022-12-01T20:23:44.129Z,51.63
2022-12-01T20:26:11.958Z,51.73
2022-12-01T20:28:39.130Z,51.83
2022-12-01T20:31:12.267Z,46.80
2022-12-01T20:33:39.805Z,51.43
2022-12-01T20:36:07.575Z,55.27
2022-12-01T20:38:35.602Z,50.70
2022-12-01T20:41:02.303Z,49.67
2022-12-01T20:43:28.890Z,57.13
2022-12-01T20:45:55.622Z,54.23
2022-12-01T20:48:22.318Z,54.53
2022-12-01T20:50:48.869Z,58.77
2022-12-01T20:53:15.982Z,48.80
2022-12-01T20:55:43.233Z,50.17
2022-12-01T20:58:10.048Z,53.80
2022-12-01T21:00:41.104Z,57.33
2022-12-01T21:03:07.776Z,54.90
2022-12-01T21:05:37.977Z,50.53
2022-12-01T21:08:08.058Z,53.00
2022-12-01T21:10:38.134Z,45.67
2022-12-01T21:13:39.292Z,49.23
2022-12-01T21:16:14.077Z,49.77
2022-12-01T21:18:55.381Z,57.30
2022-12-01T21:21:35.099Z,58.33
2022-12-01T21:24:07.581Z,51.77
2022-12-01T21:26:36.285Z,55.23
2022-12-01T21:29:14.304Z,55.73
2022-12-01T21:31:41.128Z,59.00
2022-12-01T21:34:14.622Z,56.77
2022-12-01T21:36:41.270Z,55.73
2022-12-01T21:39:14.678Z,53.40
2022-12-01T21:41:41.562Z,52.10
2022-12-01T21:44:13.674Z,65.00
2022-12-01T21:46:42.029Z,62.67
2022-12-01T21:49:20.476Z,60.67
2022-12-01T21:51:48.314Z,56.43
2022-12-01T21:54:22.099Z,59.30
2022-12-01T21:56:49.189Z,50.33
2022-12-01T21:59:19.421Z,56.27
2022-12-01T22:01:46.646Z,57.73
2022-12-01T22:04:19.035Z,62.27
2022-12-01T22:06:48.707Z,54.57
2022-12-01T22:09:22.192Z,54.43
2022-12-01T22:11:56.956Z,51.07
2022-12-01T22:14:27.213Z,51.23
2022-12-01T22:16:59.183Z,60.80
2022-12-01T22:19:29.042Z,62.00
2022-12-01T22:22:16.113Z,50.47
2022-12-01T22:24:45.155Z,53.80
2022-12-01T22:27:30.084Z,60.67
2022-12-01T22:30:07.294Z,51.83
2022-12-01T22:32:34.079Z,54.43
2022-12-01T22:35:10.689Z,55.67
2022-12-01T22:37:43.413Z,56.67
2022-12-01T22:40:35.664Z,51.03
2022-12-01T22:43:17.698Z,59.10
2022-12-01T22:45:49.742Z,57.10
2022-12-01T22:48:46.179Z,61.70
2022-12-01T22:51:12.746Z,60.20
2022-12-01T22:53:40.279Z,58.80
2022-12-01T22:56:38.672Z,59.60
2022-12-01T22:59:37.613Z,55.97
2022-12-01T23:02:21.313Z,65.50
2022-12-01T23:04:56.863Z,58.10
2022-12-01T23:07:26.192Z,53.13
2022-12-01T23:09:53.020Z,54.00
2022-12-01T23:12:31.463Z,54.83
2022-12-01T23:15:14.894Z,51.70
2022-12-01T23:17:41.689Z,57.17
2022-12-01T23:20:11.553Z,53.03
2022-12-01T23:22:38.554Z,55.73
2022-12-01T23:25:17.277Z,52.17
2022-12-01T23:27:46.264Z,51.33
2022-12-01T23:30:14.443Z,50.13
2022-12-01T23:32:41.380Z,53.70
2022-12-01T23:35:16.391Z,52.63
2022-12-01T23:37:44.491Z,49.53
2022-12-01T23:40:21.087Z,53.07
2022-12-01T23:42:47.819Z,52.57
2022-12-01T23:45:21.731Z,55.03
2022-12-01T23:47:48.969Z,56.27
2022-12-01T23:50:20.119Z,54.40
2022-12-01T23:52:46.945Z,52.80
2022-12-01T23:55:26.506Z,51.20
2022-12-01T23:57:53.423Z,47.80
